createdAt,value
2023-05-16T00:00:40.746Z,11.95
2023-05-16T00:03:24.506Z,11.93
2023-05-16T00:05:51.260Z,11.88
2023-05-16T00:08:18.446Z,11.82
2023-05-16T00:10:45.280Z,11.77
2023-05-16T00:13:12.396Z,11.71
2023-05-16T00:15:39.821Z,11.72
2023-05-16T00:18:07.269Z,11.77
2023-05-16T00:20:34.790Z,11.80
2023-05-16T00:23:02.097Z,11.84
2023-05-16T00:25:29.065Z,11.88
2023-05-16T00:27:56.252Z,11.96
2023-05-16T00:30:22.981Z,12.04
2023-05-16T00:32:50.083Z,12.14
2023-05-16T00:35:17.125Z,12.20
2023-05-16T00:37:44.171Z,12.26
2023-05-16T00:40:11.467Z,12.29
2023-05-16T00:42:39.010Z,12.35
2023-05-16T00:45:06.487Z,12.37
2023-05-16T00:47:33.833Z,12.40
2023-05-16T00:50:01.929Z,12.37
2023-05-16T00:52:29.085Z,12.35
2023-05-16T00:54:55.936Z,12.33
2023-05-16T00:57:23.683Z,12.29
2023-05-16T00:59:51.133Z,12.24
2023-05-16T01:02:18.316Z,12.21
2023-05-16T01:04:46.132Z,12.16
2023-05-16T01:07:13.163Z,12.11
2023-05-16T01:09:40.405Z,12.06
2023-05-16T01:12:26.052Z,12.00
2023-05-16T01:14:55.983Z,11.98
2023-05-16T01:17:28.931Z,11.95
2023-05-16T01:20:22.285Z,11.94
2023-05-16T01:23:08.381Z,11.91
2023-05-16T01:25:35.148Z,11.88
2023-05-16T01:28:03.305Z,11.85
2023-05-16T01:30:33.789Z,11.81
2023-05-16T01:33:01.268Z,11.75
2023-05-16T01:35:28.680Z,11.70
2023-05-16T01:37:55.961Z,11.63
2023-05-16T01:41:01.393Z,11.60
2023-05-16T01:43:35.660Z,11.52
2023-05-16T01:46:10.712Z,11.49
2023-05-16T01:48:58.044Z,11.44
2023-05-16T01:51:28.110Z,11.39
2023-05-16T01:53:58.627Z,11.34
2023-05-16T01:56:26.842Z,11.27
2023-05-16T01:58:55.014Z,11.21
2023-05-16T02:01:21.824Z,11.13
2023-05-16T02:03:48.998Z,11.06
2023-05-16T02:06:15.912Z,11.02
2023-05-16T02:08:43.053Z,10.99
2023-05-16T02:11:09.758Z,10.95
2023-05-16T02:13:37.303Z,10.92
2023-05-16T02:16:04.419Z,10.88
2023-05-16T02:18:32.062Z,10.82
2023-05-16T02:20:58.982Z,10.75
2023-05-16T02:23:25.965Z,10.66
2023-05-16T02:25:52.622Z,10.59
2023-05-16T02:28:19.785Z,10.59
2023-05-16T02:30:46.740Z,10.55
2023-05-16T02:33:13.802Z,10.51
2023-05-16T02:35:40.874Z,10.46
2023-05-16T02:38:07.985Z,10.38
2023-05-16T02:43:25.087Z,10.22
2023-05-16T02:45:53.162Z,10.09
2023-05-16T02:48:20.081Z,9.99
2023-05-16T02:50:47.126Z,9.93
2023-05-16T02:53:13.905Z,9.88
2023-05-16T02:55:41.073Z,9.82
2023-05-16T02:58:08.336Z,9.78
2023-05-16T03:00:35.383Z,9.75
2023-05-16T03:03:02.373Z,9.76
2023-05-16T03:05:29.820Z,9.76
2023-05-16T03:07:56.773Z,9.78
2023-05-16T03:10:23.864Z,9.78
2023-05-16T03:12:51.103Z,9.79
2023-05-16T03:15:18.184Z,9.82
2023-05-16T03:17:45.011Z,9.88
2023-05-16T03:20:12.377Z,9.93
2023-05-16T03:22:40.510Z,10.00
2023-05-16T03:25:08.021Z,10.10
2023-05-16T03:27:34.851Z,10.19
2023-05-16T03:30:02.560Z,10.30
2023-05-16T03:32:29.443Z,10.43
2023-05-16T03:34:56.607Z,10.59
2023-05-16T03:37:23.405Z,10.79
2023-05-16T03:39:51.087Z,10.97
2023-05-16T03:42:18.579Z,11.14
2023-05-16T03:44:45.837Z,11.28
2023-05-16T03:47:12.711Z,11.44
2023-05-16T03:49:40.062Z,11.61
2023-05-16T03:52:07.249Z,11.75
2023-05-16T03:54:34.363Z,11.84
2023-05-16T03:57:01.627Z,11.95
2023-05-16T03:59:28.675Z,12.11
2023-05-16T04:01:55.718Z,12.24
2023-05-16T04:04:22.813Z,12.44
2023-05-16T04:06:49.534Z,12.60
2023-05-16T04:09:16.669Z,12.75
2023-05-16T04:11:43.469Z,12.92
2023-05-16T04:14:10.582Z,13.10
2023-05-16T04:16:37.461Z,13.27
2023-05-16T04:19:04.664Z,13.51
2023-05-16T04:21:31.947Z,13.76
2023-05-16T04:23:59.170Z,14.04
2023-05-16T04:26:27.678Z,14.30
2023-05-16T04:28:54.713Z,14.49
2023-05-16T04:31:23.171Z,14.65
2023-05-16T04:33:50.447Z,14.90
2023-05-16T04:36:17.144Z,15.23
2023-05-16T04:38:44.419Z,15.64
2023-05-16T04:41:11.281Z,16.05
2023-05-16T04:43:38.366Z,16.39
2023-05-16T04:46:05.484Z,16.59
2023-05-16T04:48:32.772Z,16.76
2023-05-16T04:50:59.592Z,16.97
2023-05-16T04:53:26.656Z,17.13
2023-05-16T04:55:53.474Z,17.28
2023-05-16T04:58:20.671Z,17.44
2023-05-16T05:00:47.658Z,17.54
2023-05-16T05:03:14.740Z,17.70
2023-05-16T05:05:41.552Z,17.80
2023-05-16T05:08:08.602Z,17.80
2023-05-16T05:10:35.612Z,17.74
2023-05-16T05:13:02.710Z,17.70
2023-05-16T05:15:29.811Z,17.64
2023-05-16T05:17:57.111Z,17.55
2023-05-16T05:20:24.015Z,17.44
2023-05-16T05:22:51.058Z,17.41
2023-05-16T05:25:17.909Z,17.39
2023-05-16T05:27:44.957Z,17.47
2023-05-16T05:30:12.006Z,17.55
2023-05-16T05:32:39.205Z,17.69
2023-05-16T05:35:06.331Z,17.76
2023-05-16T05:37:33.861Z,18.04
2023-05-16T05:40:00.758Z,18.17
2023-05-16T05:42:27.795Z,18.12
2023-05-16T05:44:55.069Z,18.13
2023-05-16T05:47:22.310Z,18.07
2023-05-16T05:49:49.103Z,18.01
2023-05-16T05:52:16.145Z,17.89
2023-05-16T05:54:42.957Z,17.75
2023-05-16T05:57:09.961Z,17.60
2023-05-16T05:59:36.829Z,17.61
2023-05-16T06:02:04.080Z,17.79
2023-05-16T06:04:31.304Z,18.03
2023-05-16T06:06:58.400Z,18.17
2023-05-16T06:09:25.194Z,18.30
2023-05-16T06:11:52.285Z,18.35
2023-05-16T06:14:20.089Z,18.26
2023-05-16T06:16:47.192Z,18.26
2023-05-16T06:19:16.353Z,18.30
2023-05-16T06:21:43.922Z,18.24
2023-05-16T06:24:11.322Z,18.15
2023-05-16T06:26:38.408Z,18.04
2023-05-16T06:29:05.171Z,17.95
2023-05-16T06:31:32.399Z,17.81
2023-05-16T06:33:59.311Z,17.81
2023-05-16T06:36:26.456Z,17.89
2023-05-16T06:38:53.320Z,18.01
2023-05-16T06:41:21.577Z,18.07
2023-05-16T06:43:48.410Z,17.99
2023-05-16T06:46:16.132Z,17.96
2023-05-16T06:48:42.933Z,17.97
2023-05-16T06:51:10.424Z,18.08
2023-05-16T06:53:37.298Z,18.20
2023-05-16T06:56:04.496Z,18.33
2023-05-16T06:58:31.643Z,18.43
2023-05-16T07:00:58.771Z,18.48
2023-05-16T07:03:26.087Z,18.55
2023-05-16T07:05:53.236Z,18.66
2023-05-16T07:08:20.064Z,18.76
2023-05-16T07:10:47.224Z,18.67
2023-05-16T07:13:14.086Z,18.60
2023-05-16T07:15:41.269Z,18.56
2023-05-16T07:18:08.364Z,18.67
2023-05-16T07:20:35.516Z,18.81
2023-05-16T07:23:02.365Z,18.96
2023-05-16T07:25:30.219Z,19.21
2023-05-16T07:27:57.200Z,19.48
2023-05-16T07:30:24.746Z,19.78
2023-05-16T07:32:51.770Z,19.89
2023-05-16T07:35:19.065Z,19.95
2023-05-16T07:37:46.066Z,20.10
2023-05-16T07:40:13.750Z,20.38
2023-05-16T07:42:40.579Z,20.60
2023-05-16T07:45:08.416Z,20.81
2023-05-16T07:47:35.650Z,21.04
2023-05-16T07:50:02.910Z,21.34
2023-05-16T07:52:29.759Z,21.61
2023-05-16T07:54:56.994Z,21.78
2023-05-16T07:57:25.078Z,21.95
2023-05-16T07:59:52.834Z,22.14
2023-05-16T08:02:19.979Z,22.59
2023-05-16T08:04:47.220Z,22.99
2023-05-16T08:07:14.087Z,23.36
2023-05-16T08:09:41.196Z,23.68
2023-05-16T08:12:08.531Z,24.19
2023-05-16T08:14:37.167Z,24.62
2023-05-16T08:17:04.223Z,24.53
2023-05-16T08:19:33.078Z,24.24
2023-05-16T08:21:59.949Z,24.31
2023-05-16T08:24:27.305Z,24.48
2023-05-16T08:26:54.322Z,24.48
2023-05-16T08:29:22.082Z,24.53
2023-05-16T08:31:48.972Z,24.68
2023-05-16T08:34:16.286Z,25.07
2023-05-16T08:36:43.123Z,25.41
2023-05-16T08:39:13.105Z,25.80
2023-05-16T08:41:40.031Z,26.03
2023-05-16T08:44:07.306Z,25.68
2023-05-16T08:46:37.529Z,25.34
2023-05-16T08:49:08.019Z,25.02
2023-05-16T08:51:35.746Z,24.59
2023-05-16T08:54:13.524Z,24.32
2023-05-16T08:56:44.422Z,24.31
2023-05-16T08:59:15.192Z,24.24
2023-05-16T09:01:42.277Z,24.42
2023-05-16T09:04:10.434Z,24.58
2023-05-16T09:06:37.699Z,24.87
2023-05-16T09:09:08.022Z,25.35
2023-05-16T09:11:37.108Z,25.95
2023-05-16T09:14:05.719Z,26.56
2023-05-16T09:16:32.802Z,27.06
2023-05-16T09:19:01.696Z,27.31
2023-05-16T09:21:29.762Z,27.28
2023-05-16T09:23:56.875Z,27.08
2023-05-16T09:26:23.750Z,27.42
2023-05-16T09:28:53.811Z,27.68
2023-05-16T09:31:26.864Z,28.19
2023-05-16T09:33:56.663Z,28.78
2023-05-16T09:36:23.531Z,28.11
2023-05-16T09:38:51.776Z,27.45
2023-05-16T09:41:18.632Z,27.03
2023-05-16T09:43:45.920Z,26.59
2023-05-16T09:46:16.094Z,26.63
2023-05-16T09:48:46.848Z,26.84
2023-05-16T09:51:14.264Z,27.13
2023-05-16T09:53:44.295Z,27.04
2023-05-16T09:56:11.628Z,26.90
2023-05-16T09:58:39.822Z,26.89
2023-05-16T10:01:07.381Z,26.85
2023-05-16T10:03:35.584Z,26.88
2023-05-16T10:06:03.302Z,26.87
2023-05-16T10:08:31.919Z,26.90
2023-05-16T10:10:58.864Z,27.10
2023-05-16T10:13:29.572Z,27.33
2023-05-16T10:15:57.395Z,27.48
2023-05-16T10:18:31.309Z,27.56
2023-05-16T10:21:01.608Z,27.57
2023-05-16T10:23:28.774Z,27.39
2023-05-16T10:25:57.855Z,27.19
2023-05-16T10:28:25.120Z,26.99
2023-05-16T10:30:52.035Z,26.83
2023-05-16T10:33:19.924Z,26.65
2023-05-16T10:35:46.895Z,26.34
2023-05-16T10:38:17.342Z,25.97
2023-05-16T10:40:45.204Z,25.57
2023-05-16T10:43:22.799Z,25.13
2023-05-16T10:45:54.697Z,24.79
2023-05-16T10:48:29.164Z,24.44
2023-05-16T10:50:56.116Z,24.26
2023-05-16T10:53:23.148Z,24.06
2023-05-16T10:55:51.725Z,23.63
2023-05-16T10:58:23.045Z,23.05
2023-05-16T11:00:50.134Z,22.52
2023-05-16T11:03:25.548Z,22.02
2023-05-16T11:05:54.137Z,21.51
2023-05-16T11:08:21.290Z,21.13
2023-05-16T11:10:48.521Z,20.74
2023-05-16T11:13:19.724Z,20.59
2023-05-16T11:15:46.677Z,20.43
2023-05-16T11:18:17.455Z,20.37
2023-05-16T11:20:44.598Z,20.37
2023-05-16T11:23:18.670Z,20.47
2023-05-16T11:25:46.225Z,20.59
2023-05-16T11:28:14.435Z,20.77
2023-05-16T11:30:45.931Z,20.88
2023-05-16T11:33:13.598Z,20.92
2023-05-16T11:35:40.479Z,20.77
2023-05-16T11:38:12.076Z,20.76
2023-05-16T11:40:42.326Z,20.82
2023-05-16T11:43:09.490Z,20.84
2023-05-16T11:45:36.265Z,20.79
2023-05-16T11:48:08.128Z,20.84
2023-05-16T11:50:35.428Z,20.89
2023-05-16T11:53:02.778Z,20.91
2023-05-16T11:55:41.385Z,20.80
2023-05-16T11:58:10.352Z,20.59
2023-05-16T12:03:05.933Z,20.52
2023-05-16T12:05:34.977Z,20.56
2023-05-16T12:08:05.732Z,20.60
2023-05-16T12:10:35.819Z,20.70
2023-05-16T12:13:03.653Z,20.79
2023-05-16T12:15:31.132Z,20.90
2023-05-16T12:17:58.867Z,20.98
2023-05-16T12:20:26.467Z,21.00
2023-05-16T12:22:53.917Z,20.94
2023-05-16T12:25:21.792Z,20.76
2023-05-16T12:27:48.906Z,20.49
2023-05-16T12:30:19.051Z,20.35
2023-05-16T12:32:46.465Z,20.33
2023-05-16T12:35:13.454Z,20.30
2023-05-16T12:37:43.564Z,20.17
2023-05-16T12:40:12.691Z,20.16
2023-05-16T12:42:39.744Z,20.10
2023-05-16T12:45:15.109Z,20.01
2023-05-16T12:47:42.260Z,19.79
2023-05-16T12:50:10.192Z,19.56
2023-05-16T12:52:37.760Z,19.38
2023-05-16T12:55:05.005Z,19.22
2023-05-16T12:57:33.803Z,19.15
2023-05-16T13:00:01.575Z,19.06
2023-05-16T13:02:29.250Z,19.01
2023-05-16T13:04:56.371Z,19.01
2023-05-16T13:07:23.480Z,18.99
2023-05-16T13:09:50.227Z,19.00
2023-05-16T13:12:17.439Z,19.01
2023-05-16T13:14:45.277Z,19.01
2023-05-16T13:17:12.559Z,19.01
2023-05-16T13:19:39.342Z,18.98
2023-05-16T13:22:06.489Z,18.89
2023-05-16T13:24:33.671Z,18.83
2023-05-16T13:27:00.976Z,18.79
2023-05-16T13:29:27.939Z,18.75
2023-05-16T13:31:55.237Z,18.67
2023-05-16T13:34:22.254Z,18.56
2023-05-16T13:36:54.472Z,18.47
2023-05-16T13:39:22.459Z,18.43
2023-05-16T13:41:49.781Z,18.30
2023-05-16T13:44:16.816Z,18.21
2023-05-16T13:46:44.450Z,18.10
2023-05-16T13:49:11.401Z,18.01
2023-05-16T13:51:38.608Z,17.98
2023-05-16T13:54:05.618Z,17.94
2023-05-16T13:56:32.744Z,17.96
2023-05-16T13:59:05.924Z,17.97
2023-05-16T14:01:34.535Z,17.93
2023-05-16T14:04:01.554Z,17.90
2023-05-16T14:06:28.798Z,17.91
2023-05-16T14:08:55.700Z,17.94
2023-05-16T14:11:28.748Z,17.98
2023-05-16T14:13:56.693Z,18.05
2023-05-16T14:16:23.865Z,18.12
2023-05-16T14:18:50.955Z,18.17
2023-05-16T14:21:18.127Z,18.19
2023-05-16T14:23:45.337Z,18.20
2023-05-16T14:26:12.452Z,18.21
2023-05-16T14:28:39.457Z,18.19
2023-05-16T14:31:07.137Z,18.22
2023-05-16T14:33:33.931Z,18.25
2023-05-16T14:36:01.186Z,18.28
2023-05-16T14:38:28.246Z,18.30
2023-05-16T14:40:55.561Z,18.29
2023-05-16T14:43:22.422Z,18.26
2023-05-16T14:45:49.728Z,18.24
2023-05-16T14:48:17.301Z,18.23
2023-05-16T14:50:44.513Z,18.23
2023-05-16T14:53:11.429Z,18.22
2023-05-16T14:55:38.704Z,18.23
2023-05-16T14:58:05.904Z,18.21
2023-05-16T15:00:33.099Z,18.20
2023-05-16T15:03:00.008Z,18.26
2023-05-16T15:05:29.424Z,18.31
2023-05-16T15:07:56.378Z,18.32
2023-05-16T15:10:24.008Z,18.33
2023-05-16T15:12:50.836Z,18.32
2023-05-16T15:15:17.992Z,18.27
2023-05-16T15:17:44.867Z,18.25
2023-05-16T15:20:12.194Z,18.27
2023-05-16T15:22:40.522Z,18.34
2023-05-16T15:25:08.387Z,18.40
2023-05-16T15:27:35.262Z,18.44
2023-05-16T15:30:02.509Z,18.48
2023-05-16T15:32:29.539Z,18.49
2023-05-16T15:34:57.371Z,18.52
2023-05-16T15:37:24.202Z,18.55
2023-05-16T15:39:51.269Z,18.54
2023-05-16T15:42:20.016Z,18.53
2023-05-16T15:44:47.278Z,18.53
2023-05-16T15:47:14.199Z,18.50
2023-05-16T15:49:41.728Z,18.49
2023-05-16T15:52:08.963Z,18.48
2023-05-16T15:54:36.437Z,18.44
2023-05-16T15:57:03.335Z,18.35
2023-05-16T15:59:30.477Z,18.26
2023-05-16T16:01:57.377Z,18.23
2023-05-16T16:04:24.526Z,18.17
2023-05-16T16:06:51.366Z,18.09
2023-05-16T16:09:18.506Z,18.04
2023-05-16T16:11:45.457Z,18.02
2023-05-16T16:14:12.638Z,17.99
2023-05-16T16:16:40.735Z,17.97
2023-05-16T16:19:08.596Z,17.98
2023-05-16T16:21:36.061Z,17.98
2023-05-16T16:24:03.323Z,17.96
2023-05-16T16:26:31.891Z,17.95
2023-05-16T16:28:59.706Z,17.92
2023-05-16T16:31:26.650Z,17.92
2023-05-16T16:33:54.930Z,17.90
2023-05-16T16:36:21.754Z,17.88
2023-05-16T16:38:49.211Z,17.87
2023-05-16T16:41:16.688Z,17.83
2023-05-16T16:43:43.843Z,17.80
2023-05-16T16:46:10.740Z,17.79
2023-05-16T16:48:38.000Z,17.75
2023-05-16T16:51:05.178Z,17.75
2023-05-16T16:53:32.497Z,17.73
2023-05-16T16:55:59.385Z,17.70
2023-05-16T16:58:26.623Z,17.69
2023-05-16T17:00:53.469Z,17.66
2023-05-16T17:03:21.593Z,17.65
2023-05-16T17:05:48.596Z,17.63
2023-05-16T17:08:15.754Z,17.61
2023-05-16T17:10:42.557Z,17.60
2023-05-16T17:13:12.292Z,17.61
2023-05-16T17:15:39.166Z,17.57
2023-05-16T17:18:09.059Z,17.52
2023-05-16T17:20:36.404Z,17.50
2023-05-16T17:23:03.861Z,17.45
2023-05-16T17:25:30.823Z,17.39
2023-05-16T17:27:58.124Z,17.36
2023-05-16T17:30:25.107Z,17.30
2023-05-16T17:32:56.620Z,17.25
2023-05-16T17:35:23.515Z,17.18
2023-05-16T17:37:51.215Z,17.14
2023-05-16T17:40:18.270Z,17.10
2023-05-16T17:42:45.533Z,17.10
2023-05-16T17:45:16.318Z,17.07
2023-05-16T17:47:43.601Z,17.06
2023-05-16T17:50:10.975Z,17.01
2023-05-16T17:52:39.862Z,16.97
2023-05-16T17:55:07.383Z,16.95
2023-05-16T17:57:34.883Z,16.92
2023-05-16T18:00:01.881Z,16.90
2023-05-16T18:02:29.027Z,16.85
2023-05-16T18:04:55.942Z,16.80
2023-05-16T18:07:23.701Z,16.75
2023-05-16T18:09:50.644Z,16.71
2023-05-16T18:12:17.780Z,16.65
2023-05-16T18:14:45.602Z,16.62
2023-05-16T18:17:13.553Z,16.58
2023-05-16T18:19:40.448Z,16.53
2023-05-16T18:22:08.961Z,16.49
2023-05-16T18:24:35.894Z,16.45
2023-05-16T18:27:03.398Z,16.40
2023-05-16T18:29:30.374Z,16.37
2023-05-16T18:31:57.868Z,16.34
2023-05-16T18:34:24.695Z,16.30
2023-05-16T18:36:51.797Z,16.28
2023-05-16T18:39:20.402Z,16.26
2023-05-16T18:41:48.446Z,16.22
2023-05-16T18:44:18.155Z,16.17
2023-05-16T18:46:46.527Z,16.13
2023-05-16T18:49:14.264Z,16.09
2023-05-16T18:51:41.471Z,16.04
2023-05-16T18:54:08.336Z,16.02
2023-05-16T18:56:35.512Z,15.99
2023-05-16T18:59:02.355Z,15.97
2023-05-16T19:01:29.551Z,15.91
2023-05-16T19:03:56.797Z,15.87
2023-05-16T19:06:24.212Z,15.82
2023-05-16T19:08:51.216Z,15.76
2023-05-16T19:11:18.418Z,15.71
2023-05-16T19:13:45.906Z,15.68
2023-05-16T19:16:13.840Z,15.66
2023-05-16T19:18:40.858Z,15.63
2023-05-16T19:21:08.137Z,15.63
2023-05-16T19:23:35.142Z,15.59
2023-05-16T19:26:02.278Z,15.58
2023-05-16T19:28:29.088Z,15.56
2023-05-16T19:30:56.412Z,15.56
2023-05-16T19:33:23.247Z,15.53
2023-05-16T19:35:52.928Z,15.49
2023-05-16T19:38:24.632Z,15.46
2023-05-16T19:40:51.991Z,15.42
2023-05-16T19:43:19.035Z,15.39
2023-05-16T19:45:46.187Z,15.38
2023-05-16T19:48:13.693Z,15.38
2023-05-16T19:50:41.178Z,15.39
2023-05-16T19:53:08.162Z,15.41
2023-05-16T19:55:37.776Z,15.43
2023-05-16T19:58:05.016Z,15.45
2023-05-16T20:00:32.183Z,15.46
2023-05-16T20:02:59.166Z,15.48
2023-05-16T20:05:27.124Z,15.48
2023-05-16T20:07:55.392Z,15.51
2023-05-16T20:10:22.502Z,15.53
2023-05-16T20:12:49.701Z,15.54
2023-05-16T20:15:17.178Z,15.54
2023-05-16T20:17:44.091Z,15.53
2023-05-16T20:20:11.324Z,15.50
2023-05-16T20:22:41.954Z,15.51
2023-05-16T20:25:10.063Z,15.55
2023-05-16T20:27:36.894Z,15.48
2023-05-16T20:30:04.898Z,15.40
2023-05-16T20:32:31.820Z,15.31
2023-05-16T20:34:59.130Z,15.27
2023-05-16T20:37:26.912Z,15.24
2023-05-16T20:39:54.591Z,15.23
2023-05-16T20:42:21.809Z,15.22
2023-05-16T20:44:49.012Z,15.21
2023-05-16T20:47:18.048Z,15.22
2023-05-16T20:49:45.138Z,15.21
2023-05-16T20:52:11.933Z,15.23
2023-05-16T20:54:38.994Z,15.22
2023-05-16T20:57:06.086Z,15.18
2023-05-16T20:59:34.002Z,15.13
2023-05-16T21:02:01.594Z,15.10
2023-05-16T21:04:28.899Z,15.10
2023-05-16T21:06:55.689Z,15.09
2023-05-16T21:09:22.757Z,15.08
2023-05-16T21:11:50.001Z,15.09
2023-05-16T21:14:17.175Z,15.08
2023-05-16T21:16:44.011Z,15.08
2023-05-16T21:19:11.172Z,15.08
2023-05-16T21:21:38.224Z,15.10
2023-05-16T21:24:05.754Z,15.09
2023-05-16T21:26:32.655Z,15.07
2023-05-16T21:28:59.833Z,15.06
2023-05-16T21:31:26.730Z,15.04
2023-05-16T21:33:53.880Z,15.03
2023-05-16T21:36:21.168Z,15.02
2023-05-16T21:38:48.466Z,15.01
2023-05-16T21:41:15.382Z,15.01
2023-05-16T21:43:42.588Z,15.01
2023-05-16T21:46:09.500Z,15.00
2023-05-16T21:48:36.692Z,14.99
2023-05-16T21:51:03.773Z,14.98
2023-05-16T21:53:30.902Z,14.95
2023-05-16T21:55:57.794Z,14.95
2023-05-16T21:58:25.491Z,14.92
2023-05-16T22:00:52.478Z,14.91
2023-05-16T22:03:21.273Z,14.89
2023-05-16T22:05:48.486Z,14.88
2023-05-16T22:08:15.865Z,14.87
2023-05-16T22:10:42.929Z,14.82
2023-05-16T22:13:10.172Z,14.81
2023-05-16T22:15:37.004Z,14.79
2023-05-16T22:18:04.333Z,14.75
2023-05-16T22:20:31.338Z,14.73
2023-05-16T22:22:58.504Z,14.69
2023-05-16T22:25:25.398Z,14.68
2023-05-16T22:27:52.680Z,14.65
2023-05-16T22:30:19.546Z,14.63
2023-05-16T22:32:47.133Z,14.61
2023-05-16T22:35:14.493Z,14.53
2023-05-16T22:37:42.212Z,14.51
2023-05-16T22:40:09.280Z,14.50
2023-05-16T22:42:36.474Z,14.48
2023-05-16T22:45:03.956Z,14.48
2023-05-16T22:47:33.076Z,14.47
2023-05-16T22:49:59.992Z,14.46
2023-05-16T22:52:27.101Z,14.44
2023-05-16T22:54:54.091Z,14.41
2023-05-16T22:57:21.442Z,14.39
2023-05-16T22:59:48.178Z,14.35
2023-05-16T23:02:15.405Z,14.31
2023-05-16T23:04:42.382Z,14.31
2023-05-16T23:07:09.700Z,14.24
2023-05-16T23:09:36.849Z,14.18
2023-05-16T23:12:04.147Z,14.18
2023-05-16T23:14:30.941Z,14.17
2023-05-16T23:16:58.009Z,14.13
2023-05-16T23:19:25.108Z,14.12
2023-05-16T23:21:52.343Z,14.13
2023-05-16T23:24:19.172Z,14.14
2023-05-16T23:26:46.438Z,14.17
2023-05-16T23:29:13.182Z,14.15
2023-05-16T23:31:40.320Z,14.16
2023-05-16T23:34:07.367Z,14.20
2023-05-16T23:36:34.487Z,14.22
2023-05-16T23:39:01.288Z,14.20
2023-05-16T23:41:28.352Z,14.19
2023-05-16T23:43:55.394Z,14.21
2023-05-16T23:46:22.408Z,14.22
2023-05-16T23:48:49.292Z,14.20
2023-05-16T23:51:16.407Z,14.19
2023-05-16T23:53:43.325Z,14.19
2023-05-16T23:56:10.606Z,14.21
2023-05-16T23:58:37.577Z,14.21
